createdAt,value
2019-05-30T00:01:24.998Z,13.80
2019-05-30T00:04:00.474Z,13.70
2019-05-30T00:06:29.608Z,13.60
2019-05-30T00:09:05.314Z,13.50
2019-05-30T00:11:34.514Z,13.40
2019-05-30T00:14:10.218Z,13.40
2019-05-30T00:16:39.363Z,13.30
2019-05-30T00:19:08.573Z,13.30
2019-05-30T00:21:44.372Z,13.30
2019-05-30T00:24:19.871Z,13.30
2019-05-30T00:26:49.102Z,13.30
2019-05-30T00:29:31.850Z,13.30
2019-05-30T00:32:01.556Z,13.40
2019-05-30T00:34:30.847Z,13.40
2019-05-30T00:37:06.700Z,13.40
2019-05-30T00:39:43.415Z,13.40
2019-05-30T00:42:12.546Z,13.30
2019-05-30T00:44:55.879Z,13.30
2019-05-30T00:47:32.180Z,13.30
2019-05-30T00:50:07.658Z,13.30
2019-05-30T00:52:36.971Z,13.30
2019-05-30T00:55:07.081Z,13.30
2019-05-30T00:57:42.480Z,13.30
2019-05-30T01:00:12.028Z,13.30
2019-05-30T01:02:41.192Z,13.30
2019-05-30T01:05:17.535Z,13.30
2019-05-30T01:07:46.676Z,13.30
2019-05-30T01:10:22.707Z,13.30
2019-05-30T01:12:51.960Z,13.40
2019-05-30T01:15:21.167Z,13.30
2019-05-30T01:17:57.254Z,13.30
2019-05-30T01:20:26.414Z,13.40
2019-05-30T01:22:55.534Z,13.40
2019-05-30T01:25:31.743Z,13.30
2019-05-30T01:28:01.619Z,13.30
2019-05-30T01:30:58.946Z,13.20
2019-05-30T01:33:15.697Z,13.20
2019-05-30T01:35:44.800Z,13.20
2019-05-30T01:38:20.553Z,13.10
2019-05-30T01:40:49.749Z,13.00
2019-05-30T01:43:25.186Z,13.00
2019-05-30T01:46:02.102Z,13.00
2019-05-30T01:48:45.138Z,12.80
2019-05-30T01:51:14.316Z,12.90
2019-05-30T01:53:43.440Z,12.90
2019-05-30T01:56:18.950Z,12.90
2019-05-30T01:58:48.107Z,13.00
2019-05-30T02:01:25.702Z,13.00
2019-05-30T02:03:55.100Z,13.00
2019-05-30T02:06:24.223Z,13.10
2019-05-30T02:08:59.530Z,13.10
2019-05-30T02:11:28.679Z,13.10
2019-05-30T02:14:05.734Z,13.10
2019-05-30T02:16:35.084Z,13.20
2019-05-30T02:19:05.756Z,13.20
2019-05-30T02:21:41.944Z,13.20
2019-05-30T02:24:12.198Z,13.20
2019-05-30T02:26:48.467Z,13.10
2019-05-30T02:29:18.620Z,13.10
2019-05-30T02:32:03.116Z,13.00
2019-05-30T02:34:32.580Z,13.00
2019-05-30T02:37:03.255Z,13.00
2019-05-30T02:39:38.876Z,13.00
2019-05-30T02:42:09.666Z,13.00
2019-05-30T02:44:47.395Z,13.00
2019-05-30T02:47:23.335Z,12.90
2019-05-30T02:49:58.814Z,12.90
2019-05-30T02:52:27.962Z,12.90
2019-05-30T02:54:57.133Z,13.00
2019-05-30T02:57:32.439Z,13.00
2019-05-30T03:00:01.954Z,12.90
2019-05-30T03:02:32.453Z,13.00
2019-05-30T03:05:11.511Z,13.00
2019-05-30T03:07:39.313Z,13.00
2019-05-30T03:10:11.801Z,13.00
2019-05-30T03:12:45.915Z,13.00
2019-05-30T03:15:22.568Z,13.00
2019-05-30T03:17:51.709Z,13.00
2019-05-30T03:20:23.126Z,13.10
2019-05-30T03:22:58.728Z,13.10
2019-05-30T03:25:27.873Z,13.10
2019-05-30T03:28:05.225Z,13.20
2019-05-30T03:30:42.078Z,13.20
2019-05-30T03:33:36.122Z,13.20
2019-05-30T03:35:48.679Z,13.20
2019-05-30T03:38:17.866Z,13.20
2019-05-30T03:40:54.407Z,13.20
2019-05-30T03:43:23.531Z,13.30
2019-05-30T03:45:59.495Z,13.30
2019-05-30T03:48:37.919Z,13.30
2019-05-30T03:51:15.596Z,13.40
2019-05-30T03:53:44.765Z,13.40
2019-05-30T03:56:17.413Z,13.40
2019-05-30T03:59:12.616Z,13.40
2019-05-30T04:01:54.537Z,13.50
2019-05-30T04:04:33.736Z,13.50
2019-05-30T04:07:06.881Z,13.50
2019-05-30T04:09:45.743Z,13.50
2019-05-30T04:12:28.107Z,13.50
2019-05-30T04:15:11.836Z,13.50
2019-05-30T04:17:40.925Z,13.50
2019-05-30T04:20:20.546Z,13.60
2019-05-30T04:22:47.280Z,13.60
2019-05-30T04:25:16.750Z,13.70
2019-05-30T04:27:52.129Z,13.60
2019-05-30T04:30:21.351Z,13.70
2019-05-30T04:33:17.358Z,13.80
2019-05-30T04:35:35.150Z,13.80
2019-05-30T04:38:12.691Z,13.80
2019-05-30T04:40:42.110Z,13.70
2019-05-30T04:43:11.305Z,13.70
2019-05-30T04:45:46.981Z,13.70
2019-05-30T04:48:22.986Z,13.70
2019-05-30T04:50:58.442Z,13.80
2019-05-30T04:53:27.642Z,13.80
2019-05-30T04:56:03.134Z,13.90
2019-05-30T04:58:32.338Z,13.90
2019-05-30T05:01:08.558Z,13.90
2019-05-30T05:03:45.715Z,14.00
2019-05-30T05:06:08.396Z,13.90
2019-05-30T05:08:44.613Z,13.90
2019-05-30T05:11:16.523Z,13.90
2019-05-30T05:13:51.331Z,13.90
2019-05-30T05:16:33.677Z,13.90
2019-05-30T05:18:58.270Z,13.90
2019-05-30T05:21:27.468Z,13.90
2019-05-30T05:23:56.679Z,13.90
2019-05-30T05:26:32.607Z,13.90
2019-05-30T05:29:01.863Z,13.90
2019-05-30T05:31:37.193Z,13.90
2019-05-30T05:34:14.459Z,14.00
2019-05-30T05:36:50.131Z,14.10
2019-05-30T05:39:20.082Z,14.10
2019-05-30T05:41:49.394Z,14.20
2019-05-30T05:44:25.189Z,14.20
2019-05-30T05:47:01.719Z,14.20
2019-05-30T05:49:37.371Z,14.20
2019-05-30T05:52:06.521Z,14.20
2019-05-30T05:54:41.929Z,14.20
2019-05-30T05:57:11.143Z,14.20
2019-05-30T05:59:40.391Z,14.30
2019-05-30T06:02:17.606Z,14.30
2019-05-30T06:04:47.295Z,14.30
2019-05-30T06:07:23.079Z,14.40
2019-05-30T06:09:52.303Z,14.40
2019-05-30T06:12:28.813Z,14.50
2019-05-30T06:14:58.110Z,14.50
2019-05-30T06:17:27.256Z,14.60
2019-05-30T06:20:02.804Z,14.70
2019-05-30T06:22:31.937Z,14.70
2019-05-30T06:25:07.671Z,14.70
2019-05-30T06:27:36.786Z,14.70
2019-05-30T06:30:06.736Z,14.70
2019-05-30T06:32:43.256Z,14.80
2019-05-30T06:35:21.253Z,14.80
2019-05-30T06:37:56.814Z,14.80
2019-05-30T06:40:26.012Z,14.90
2019-05-30T06:42:55.150Z,14.90
2019-05-30T06:45:31.423Z,14.90
2019-05-30T06:48:07.189Z,15.00
2019-05-30T06:50:49.779Z,15.00
2019-05-30T06:53:18.979Z,15.00
2019-05-30T06:55:48.186Z,15.00
2019-05-30T06:58:43.669Z,15.10
2019-05-30T07:00:55.135Z,15.10
2019-05-30T07:03:30.652Z,15.20
2019-05-30T07:06:00.676Z,15.20
2019-05-30T07:08:36.428Z,15.20
2019-05-30T07:11:05.682Z,15.20
2019-05-30T07:13:34.832Z,15.20
2019-05-30T07:16:11.172Z,15.20
2019-05-30T07:18:40.230Z,15.30
2019-05-30T07:21:16.454Z,15.30
2019-05-30T07:23:45.584Z,15.30
2019-05-30T07:26:14.678Z,15.40
2019-05-30T07:28:50.257Z,15.40
2019-05-30T07:31:22.286Z,15.40
2019-05-30T07:34:04.920Z,15.40
2019-05-30T07:36:40.144Z,15.40
2019-05-30T07:39:16.070Z,15.50
2019-05-30T07:41:45.318Z,15.40
2019-05-30T07:44:14.442Z,15.50
2019-05-30T07:46:50.332Z,15.40
2019-05-30T07:49:28.233Z,15.50
2019-05-30T07:52:12.541Z,15.50
2019-05-30T07:54:43.874Z,15.50
2019-05-30T07:57:22.447Z,15.50
2019-05-30T07:59:52.942Z,15.50
2019-05-30T08:02:22.091Z,15.60
2019-05-30T08:04:57.472Z,15.60
2019-05-30T08:07:26.625Z,15.60
2019-05-30T08:10:02.727Z,15.60
2019-05-30T08:12:32.115Z,15.70
2019-05-30T08:15:08.315Z,15.70
2019-05-30T08:17:37.867Z,15.70
2019-05-30T08:20:08.246Z,15.70
2019-05-30T08:22:43.993Z,15.80
2019-05-30T08:25:14.771Z,15.80
2019-05-30T08:27:50.669Z,15.80
2019-05-30T08:30:26.094Z,15.80
2019-05-30T08:33:02.165Z,15.90
2019-05-30T08:35:47.552Z,15.90
2019-05-30T08:38:15.029Z,16.00
2019-05-30T08:40:44.257Z,16.10
2019-05-30T08:43:13.357Z,16.10
2019-05-30T08:45:49.612Z,16.20
2019-05-30T08:48:25.595Z,16.30
2019-05-30T08:51:08.565Z,16.30
2019-05-30T08:53:38.442Z,16.50
2019-05-30T08:56:07.788Z,16.50
2019-05-30T08:58:43.071Z,16.60
2019-05-30T09:01:12.209Z,16.60
2019-05-30T09:03:42.495Z,16.70
2019-05-30T09:06:17.933Z,16.70
2019-05-30T09:08:48.309Z,16.80
2019-05-30T09:11:24.150Z,16.90
2019-05-30T09:13:55.006Z,17.00
2019-05-30T09:16:32.202Z,17.10
2019-05-30T09:19:01.584Z,17.10
2019-05-30T09:21:30.759Z,17.30
2019-05-30T09:24:06.268Z,17.40
2019-05-30T09:26:35.580Z,17.50
2019-05-30T09:32:17.326Z,17.70
2019-05-30T09:34:48.842Z,17.80
2019-05-30T09:37:31.301Z,17.80
2019-05-30T09:40:00.855Z,17.80
2019-05-30T09:42:30.271Z,17.70
2019-05-30T09:45:06.571Z,17.70
2019-05-30T09:47:41.957Z,17.70
2019-05-30T09:50:19.440Z,17.70
2019-05-30T09:52:49.382Z,17.70
2019-05-30T09:55:20.960Z,17.70
2019-05-30T09:57:56.603Z,17.70
2019-05-30T10:00:26.039Z,17.60
2019-05-30T10:03:01.580Z,17.70
2019-05-30T10:05:30.732Z,17.70
2019-05-30T10:08:00.359Z,17.80
2019-05-30T10:10:39.720Z,17.80
2019-05-30T10:13:11.347Z,17.80
2019-05-30T10:15:47.069Z,17.80
2019-05-30T10:18:30.754Z,17.80
2019-05-30T10:21:12.608Z,17.80
2019-05-30T10:23:43.053Z,17.80
2019-05-30T10:26:20.268Z,17.80
2019-05-30T10:28:49.753Z,17.80
2019-05-30T10:31:33.800Z,17.80
2019-05-30T10:34:11.226Z,17.80
2019-05-30T10:36:54.056Z,17.70
2019-05-30T10:39:23.440Z,17.80
2019-05-30T10:41:57.190Z,17.90
2019-05-30T10:44:34.255Z,17.80
2019-05-30T10:47:03.456Z,17.90
2019-05-30T10:49:35.001Z,17.90
2019-05-30T10:52:13.087Z,17.90
2019-05-30T10:54:42.817Z,18.00
2019-05-30T10:57:12.175Z,18.00
2019-05-30T10:59:50.828Z,17.90
2019-05-30T11:02:59.333Z,18.00
2019-05-30T11:05:35.081Z,18.00
2019-05-30T11:08:09.027Z,18.10
2019-05-30T11:10:48.490Z,18.20
2019-05-30T11:13:18.497Z,18.20
2019-05-30T11:15:51.614Z,18.30
2019-05-30T11:18:28.206Z,18.40
2019-05-30T11:20:58.713Z,18.40
2019-05-30T11:23:38.203Z,18.40
2019-05-30T11:26:09.128Z,18.40
2019-05-30T11:28:38.423Z,18.40
2019-05-30T11:31:14.227Z,18.40
2019-05-30T11:33:52.886Z,18.40
2019-05-30T11:36:39.093Z,18.30
2019-05-30T11:39:15.774Z,18.30
2019-05-30T11:41:57.662Z,18.20
2019-05-30T11:44:38.142Z,18.20
2019-05-30T11:47:07.529Z,18.20
2019-05-30T11:49:36.663Z,18.10
2019-05-30T11:52:13.174Z,18.00
2019-05-30T11:54:42.874Z,18.00
2019-05-30T11:57:18.956Z,18.00
2019-05-30T11:59:50.072Z,18.10
2019-05-30T12:02:26.691Z,18.10
2019-05-30T12:04:56.576Z,18.30
2019-05-30T12:07:54.819Z,18.40
2019-05-30T12:10:26.233Z,18.50
2019-05-30T12:13:15.892Z,18.60
2019-05-30T12:15:45.226Z,18.60
2019-05-30T12:18:14.518Z,18.60
2019-05-30T12:20:51.686Z,18.50
2019-05-30T12:23:21.080Z,18.60
2019-05-30T12:26:00.200Z,18.60
2019-05-30T12:28:29.745Z,18.50
2019-05-30T12:31:04.052Z,18.40
2019-05-30T12:33:37.095Z,18.40
2019-05-30T12:36:19.541Z,18.40
2019-05-30T12:38:56.274Z,18.40
2019-05-30T12:41:26.045Z,18.50
2019-05-30T12:43:55.316Z,18.50
2019-05-30T12:46:31.293Z,18.50
2019-05-30T12:49:01.602Z,18.50
2019-05-30T12:51:37.673Z,18.60
2019-05-30T12:54:10.056Z,18.60
2019-05-30T12:56:46.104Z,18.60
2019-05-30T12:59:24.011Z,18.70
2019-05-30T13:01:49.162Z,18.70
2019-05-30T13:04:25.089Z,18.80
2019-05-30T13:06:57.734Z,19.00
2019-05-30T13:09:39.900Z,19.00
2019-05-30T13:12:29.424Z,19.10
2019-05-30T13:18:10.902Z,19.10
2019-05-30T13:20:40.477Z,19.10
2019-05-30T13:23:16.243Z,19.00
2019-05-30T13:25:45.461Z,18.90
2019-05-30T13:28:14.644Z,18.90
2019-05-30T13:31:10.124Z,18.80
2019-05-30T13:33:40.673Z,18.70
2019-05-30T13:36:18.672Z,18.70
2019-05-30T13:38:54.250Z,18.80
2019-05-30T13:41:30.177Z,18.80
2019-05-30T13:44:03.870Z,18.70
2019-05-30T13:46:37.739Z,18.70
2019-05-30T13:49:07.279Z,18.70
2019-05-30T13:51:36.662Z,18.60
2019-05-30T13:54:12.825Z,18.50
2019-05-30T13:56:42.031Z,18.40
2019-05-30T13:59:18.100Z,18.40
2019-05-30T14:01:47.627Z,18.50
2019-05-30T14:04:42.075Z,18.70
2019-05-30T14:07:11.333Z,18.70
2019-05-30T14:09:40.556Z,18.80
2019-05-30T14:12:19.579Z,18.90
2019-05-30T14:14:51.327Z,18.90
2019-05-30T14:17:29.946Z,18.90
2019-05-30T14:20:08.953Z,19.30
2019-05-30T14:22:47.160Z,19.30
2019-05-30T14:25:17.305Z,19.20
2019-05-30T14:27:46.761Z,19.10
2019-05-30T14:30:29.726Z,19.00
2019-05-30T14:32:58.884Z,18.80
2019-05-30T14:35:37.385Z,18.80
2019-05-30T14:38:13.355Z,18.70
2019-05-30T14:40:51.101Z,18.60
2019-05-30T14:43:20.861Z,18.40
2019-05-30T14:46:16.689Z,18.40
2019-05-30T14:48:46.404Z,18.30
2019-05-30T14:51:15.617Z,18.20
2019-05-30T14:53:53.265Z,18.20
2019-05-30T14:56:25.437Z,18.00
2019-05-30T14:59:01.551Z,17.90
2019-05-30T15:01:33.241Z,17.80
2019-05-30T15:04:13.423Z,17.70
2019-05-30T15:06:43.213Z,17.60
2019-05-30T15:09:22.429Z,17.60
2019-05-30T15:12:10.552Z,17.60
2019-05-30T15:18:06.852Z,17.50
2019-05-30T15:20:36.443Z,17.60
2019-05-30T15:23:13.884Z,17.70
2019-05-30T15:25:43.513Z,17.80
2019-05-30T15:28:14.513Z,18.00
2019-05-30T15:31:10.649Z,18.10
2019-05-30T15:34:08.577Z,18.30
2019-05-30T15:36:42.385Z,18.40
2019-05-30T15:39:32.761Z,18.50
2019-05-30T15:41:59.657Z,18.60
2019-05-30T15:44:36.429Z,18.60
2019-05-30T15:47:07.898Z,18.60
2019-05-30T15:49:52.453Z,18.70
2019-05-30T15:52:22.562Z,18.70
2019-05-30T15:54:52.104Z,18.90
2019-05-30T15:57:28.530Z,19.00
2019-05-30T15:59:58.847Z,19.20
2019-05-30T16:02:28.048Z,19.30
2019-05-30T16:05:04.713Z,19.60
2019-05-30T16:07:33.821Z,19.70
2019-05-30T16:10:10.856Z,20.00
2019-05-30T16:12:40.341Z,20.10
2019-05-30T16:15:11.620Z,20.10
2019-05-30T16:17:47.650Z,20.10
2019-05-30T16:20:18.012Z,20.10
2019-05-30T16:22:54.489Z,20.20
2019-05-30T16:25:23.702Z,20.30
2019-05-30T16:27:53.019Z,20.30
2019-05-30T16:30:28.767Z,20.20
2019-05-30T16:32:58.001Z,20.10
2019-05-30T16:35:27.996Z,20.00
2019-05-30T16:38:03.523Z,19.80
2019-05-30T16:40:39.755Z,19.90
2019-05-30T16:43:16.054Z,19.70
2019-05-30T16:45:45.608Z,19.70
2019-05-30T16:48:14.965Z,19.70
2019-05-30T16:50:51.090Z,19.60
2019-05-30T16:53:23.112Z,19.50
2019-05-30T16:55:57.972Z,19.50
2019-05-30T16:58:27.186Z,19.50
2019-05-30T17:01:03.357Z,19.50
2019-05-30T17:03:32.810Z,19.50
2019-05-30T17:06:02.048Z,19.60
2019-05-30T17:08:37.776Z,19.60
2019-05-30T17:11:07.006Z,19.70
2019-05-30T17:13:42.784Z,19.70
2019-05-30T17:16:12.041Z,19.70
2019-05-30T17:18:54.615Z,19.90
2019-05-30T17:21:24.711Z,20.00
2019-05-30T17:23:54.069Z,20.00
2019-05-30T17:26:30.909Z,20.00
2019-05-30T17:29:06.471Z,20.00
2019-05-30T17:31:35.662Z,20.00
2019-05-30T17:34:04.971Z,20.10
2019-05-30T17:36:59.820Z,20.10
2019-05-30T17:39:35.468Z,20.10
2019-05-30T17:42:11.632Z,20.10
2019-05-30T17:44:47.989Z,20.10
2019-05-30T17:47:17.812Z,20.10
2019-05-30T17:49:47.212Z,20.10
2019-05-30T17:52:24.039Z,20.00
2019-05-30T17:54:53.348Z,20.00
2019-05-30T17:57:30.181Z,20.10
2019-05-30T17:59:59.565Z,20.20
2019-05-30T18:02:35.364Z,20.10
2019-05-30T18:05:05.756Z,20.10
2019-05-30T18:07:42.038Z,20.10
2019-05-30T18:10:11.656Z,20.10
2019-05-30T18:12:40.909Z,20.20
2019-05-30T18:15:17.971Z,20.20
2019-05-30T18:17:54.839Z,20.20
2019-05-30T18:20:47.618Z,20.20
2019-05-30T18:23:08.673Z,20.20
2019-05-30T18:25:37.923Z,20.20
2019-05-30T18:28:14.645Z,20.20
2019-05-30T18:30:44.255Z,20.20
2019-05-30T18:33:13.633Z,20.20
2019-05-30T18:35:49.970Z,20.20
2019-05-30T18:38:26.390Z,20.20
2019-05-30T18:41:11.606Z,20.20
2019-05-30T18:43:41.303Z,20.20
2019-05-30T18:46:10.529Z,20.20
2019-05-30T18:48:39.715Z,20.30
2019-05-30T18:51:15.780Z,20.30
2019-05-30T18:53:46.687Z,20.30
2019-05-30T18:56:22.817Z,20.30
2019-05-30T18:58:52.021Z,20.30
2019-05-30T19:01:29.525Z,20.20
2019-05-30T19:03:58.962Z,20.20
2019-05-30T19:06:36.250Z,20.20
2019-05-30T19:09:07.359Z,20.20
2019-05-30T19:11:38.375Z,20.10
2019-05-30T19:14:14.987Z,20.10
2019-05-30T19:16:44.143Z,20.10
2019-05-30T19:19:27.714Z,20.10
2019-05-30T19:21:58.152Z,20.10
2019-05-30T19:24:34.243Z,20.00
2019-05-30T19:27:03.767Z,20.00
2019-05-30T19:29:32.984Z,19.90
2019-05-30T19:32:08.849Z,19.90
2019-05-30T19:34:38.072Z,19.90
2019-05-30T19:37:14.088Z,19.90
2019-05-30T19:39:43.303Z,19.80
2019-05-30T19:42:25.510Z,19.80
2019-05-30T19:44:54.684Z,19.80
2019-05-30T19:47:30.599Z,19.70
2019-05-30T19:50:01.251Z,19.70
2019-05-30T19:52:30.982Z,19.70
2019-05-30T19:55:06.958Z,19.70
2019-05-30T19:57:55.273Z,19.70
2019-05-30T20:00:34.031Z,19.70
2019-05-30T20:03:04.652Z,19.70
2019-05-30T20:05:34.532Z,19.70
2019-05-30T20:08:10.337Z,19.70
2019-05-30T20:10:41.868Z,19.70
2019-05-30T20:13:21.031Z,19.60
2019-05-30T20:15:50.546Z,19.50
2019-05-30T20:18:35.486Z,19.50
2019-05-30T20:21:11.812Z,19.40
2019-05-30T20:23:55.323Z,19.20
2019-05-30T20:26:18.565Z,19.00
2019-05-30T20:28:47.837Z,18.90
2019-05-30T20:31:45.791Z,18.80
2019-05-30T20:34:16.284Z,18.70
2019-05-30T20:36:46.844Z,18.50
2019-05-30T20:39:23.433Z,18.50
2019-05-30T20:41:59.790Z,18.50
2019-05-30T20:44:36.847Z,18.50
2019-05-30T20:47:06.273Z,18.40
2019-05-30T20:49:35.585Z,18.30
2019-05-30T20:52:12.285Z,18.30
2019-05-30T20:54:41.543Z,18.20
2019-05-30T20:57:10.843Z,18.10
2019-05-30T20:59:47.210Z,18.10
2019-05-30T21:02:18.885Z,18.00
2019-05-30T21:04:50.487Z,17.90
2019-05-30T21:07:26.740Z,17.90
2019-05-30T21:09:56.386Z,17.80
2019-05-30T21:15:23.546Z,17.80
2019-05-30T21:18:01.002Z,17.80
2019-05-30T21:20:37.810Z,17.80
2019-05-30T21:23:20.790Z,17.70
2019-05-30T21:25:50.034Z,17.50
2019-05-30T21:28:19.311Z,17.50
2019-05-30T21:30:55.376Z,17.40
2019-05-30T21:33:24.758Z,17.30
2019-05-30T21:36:04.013Z,17.40
2019-05-30T21:38:33.365Z,17.40
2019-05-30T21:41:09.445Z,17.30
2019-05-30T21:43:44.905Z,17.30
2019-05-30T21:46:20.317Z,17.30
2019-05-30T21:48:51.161Z,17.20
2019-05-30T21:51:20.404Z,17.20
2019-05-30T21:53:55.926Z,17.10
2019-05-30T21:56:26.829Z,17.10
2019-05-30T21:59:02.447Z,17.00
2019-05-30T22:01:36.650Z,17.00
2019-05-30T22:04:14.206Z,17.00
2019-05-30T22:06:44.891Z,16.90
2019-05-30T22:09:20.878Z,16.80
2019-05-30T22:11:50.150Z,16.80
2019-05-30T22:14:26.130Z,16.80
2019-05-30T22:16:55.374Z,16.70
2019-05-30T22:19:24.617Z,16.70
2019-05-30T22:22:07.909Z,16.70
2019-05-30T22:24:37.225Z,16.70
2019-05-30T22:27:13.161Z,16.70
2019-05-30T22:29:42.294Z,16.70
2019-05-30T22:32:17.687Z,16.60
2019-05-30T22:34:47.001Z,16.60
2019-05-30T22:37:23.203Z,16.60
2019-05-30T22:39:53.047Z,16.60
2019-05-30T22:42:35.342Z,16.50
2019-05-30T22:45:04.774Z,16.50
2019-05-30T22:47:40.291Z,16.50
2019-05-30T22:50:09.529Z,16.50
2019-05-30T22:52:40.827Z,16.50
2019-05-30T22:55:16.734Z,16.50
2019-05-30T22:57:46.427Z,16.50
2019-05-30T23:00:22.753Z,16.50
2019-05-30T23:02:52.122Z,16.50
2019-05-30T23:05:27.687Z,16.40
2019-05-30T23:08:00.135Z,16.40
2019-05-30T23:10:29.571Z,16.40
2019-05-30T23:13:06.203Z,16.40
2019-05-30T23:15:35.343Z,16.30
2019-05-30T23:18:10.833Z,16.40
2019-05-30T23:20:46.844Z,16.30
2019-05-30T23:23:29.753Z,16.30
2019-05-30T23:25:58.882Z,16.30
2019-05-30T23:28:28.741Z,16.20
2019-05-30T23:31:06.305Z,16.20
2019-05-30T23:33:36.514Z,16.20
2019-05-30T23:36:12.771Z,16.20
2019-05-30T23:38:42.005Z,16.10
2019-05-30T23:41:24.264Z,16.10
2019-05-30T23:44:03.648Z,16.10
2019-05-30T23:46:30.711Z,16.00
2019-05-30T23:49:06.280Z,16.00
2019-05-30T23:51:42.701Z,16.00
2019-05-30T23:54:12.061Z,16.00
2019-05-30T23:56:42.389Z,15.90
2019-05-30T23:59:19.291Z,15.90
